createdAt,value
2023-04-17T00:01:01.442Z,96870.38
2023-04-17T00:03:32.804Z,96861.53
2023-04-17T00:06:03.769Z,96878.38
2023-04-17T00:08:33.836Z,96871.97
2023-04-17T00:11:07.828Z,96877.03
2023-04-17T00:13:38.000Z,96831.97
2023-04-17T00:16:06.503Z,96818.84
2023-04-17T00:18:35.432Z,96852.66
2023-04-17T00:21:04.443Z,96823.03
2023-04-17T00:23:35.555Z,96848.13
2023-04-17T00:26:02.971Z,96861.78
2023-04-17T00:28:32.011Z,96867.72
2023-04-17T00:31:01.417Z,96860.72
2023-04-17T00:33:30.563Z,96864.97
2023-04-17T00:36:01.137Z,96853.69
2023-04-17T00:38:33.314Z,96852.66
2023-04-17T00:41:03.266Z,96826.72
2023-04-17T00:43:32.539Z,96856.13
2023-04-17T00:46:01.814Z,96855.88
2023-04-17T00:48:32.899Z,96868.19
2023-04-17T00:51:04.704Z,96814.00
2023-04-17T00:53:34.966Z,96873.03
2023-04-17T00:56:06.486Z,96862.22
2023-04-17T00:58:37.281Z,96862.22
2023-04-17T01:01:06.842Z,96852.56
2023-04-17T01:03:35.790Z,96835.72
2023-04-17T01:06:05.284Z,96866.53
2023-04-17T01:08:46.086Z,96856.59
2023-04-17T01:11:16.105Z,96846.13
2023-04-17T01:13:55.537Z,96849.09
2023-04-17T01:16:25.658Z,96862.78
2023-04-17T01:18:55.701Z,96855.25
2023-04-17T01:21:27.213Z,96826.78
2023-04-17T01:23:57.942Z,96848.81
2023-04-17T01:26:27.912Z,96847.50
2023-04-17T01:29:01.172Z,96841.81
2023-04-17T01:31:31.015Z,96810.81
2023-04-17T01:34:01.632Z,96858.81
2023-04-17T01:36:29.852Z,96857.72
2023-04-17T01:39:00.161Z,96846.16
2023-04-17T01:41:28.295Z,96847.25
2023-04-17T01:43:56.612Z,96843.22
2023-04-17T01:46:24.647Z,96846.28
2023-04-17T01:48:53.615Z,96851.63
2023-04-17T01:51:21.211Z,96856.22
2023-04-17T01:53:50.924Z,96861.91
2023-04-17T01:56:19.402Z,96846.38
2023-04-17T01:58:48.392Z,96850.69
2023-04-17T02:01:17.134Z,96851.25
2023-04-17T02:03:45.914Z,96851.63
2023-04-17T02:06:15.623Z,96850.28
2023-04-17T02:08:44.084Z,96854.56
2023-04-17T02:11:14.283Z,96846.81
2023-04-17T02:13:41.984Z,96851.41
2023-04-17T02:16:10.158Z,96823.84
2023-04-17T02:18:38.092Z,96839.16
2023-04-17T02:21:06.417Z,96846.22
2023-04-17T02:23:35.129Z,96848.91
2023-04-17T02:26:02.894Z,96839.56
2023-04-17T02:28:30.422Z,96860.03
2023-04-17T02:30:58.834Z,96842.13
2023-04-17T02:33:27.957Z,96845.91
2023-04-17T02:35:57.463Z,96840.34
2023-04-17T02:38:25.689Z,96849.22
2023-04-17T02:40:54.322Z,96844.66
2023-04-17T02:43:23.143Z,96860.28
2023-04-17T02:45:51.460Z,96854.38
2023-04-17T02:48:19.743Z,96850.94
2023-04-17T02:50:47.695Z,96841.28
2023-04-17T02:53:16.024Z,96841.31
2023-04-17T02:55:44.095Z,96863.13
2023-04-17T02:58:12.241Z,96852.34
2023-04-17T03:00:40.497Z,96865.56
2023-04-17T03:03:08.922Z,96868.28
2023-04-17T03:05:37.372Z,96848.41
2023-04-17T03:08:07.070Z,96856.72
2023-04-17T03:10:35.983Z,96864.53
2023-04-17T03:13:06.306Z,96870.22
2023-04-17T03:15:34.375Z,96871.06
2023-04-17T03:18:02.900Z,96887.72
2023-04-17T03:20:31.145Z,96867.34
2023-04-17T03:23:00.772Z,96883.72
2023-04-17T03:25:30.873Z,96885.06
2023-04-17T03:27:58.901Z,96880.53
2023-04-17T03:30:28.163Z,96869.53
2023-04-17T03:32:57.412Z,96874.63
2023-04-17T03:35:26.256Z,96874.38
2023-04-17T03:37:54.606Z,96861.22
2023-04-17T03:40:23.099Z,96879.50
2023-04-17T03:42:52.092Z,96891.06
2023-04-17T03:45:19.023Z,96885.97
2023-04-17T03:47:49.310Z,96896.47
2023-04-17T03:50:16.754Z,96884.88
2023-04-17T03:52:44.504Z,96856.09
2023-04-17T03:55:12.075Z,96864.72
2023-04-17T03:57:39.138Z,96886.78
2023-04-17T04:00:11.835Z,96884.06
2023-04-17T04:02:41.200Z,96870.63
2023-04-17T04:05:08.744Z,96889.22
2023-04-17T04:07:36.536Z,96901.06
2023-04-17T04:10:05.000Z,96870.41
2023-04-17T04:12:32.554Z,96881.72
2023-04-17T04:14:59.901Z,96889.28
2023-04-17T04:17:27.749Z,96865.34
2023-04-17T04:19:56.404Z,96881.44
2023-04-17T04:22:25.050Z,96861.03
2023-04-17T04:24:55.376Z,96881.19
2023-04-17T04:27:23.526Z,96890.06
2023-04-17T04:29:51.731Z,96860.75
2023-04-17T04:32:18.627Z,96900.81
2023-04-17T04:34:45.929Z,96901.09
2023-04-17T04:37:15.957Z,96888.22
2023-04-17T04:39:44.127Z,96898.41
2023-04-17T04:42:11.686Z,96900.28
2023-04-17T04:44:39.477Z,96895.44
2023-04-17T04:47:07.051Z,96886.00
2023-04-17T04:49:35.378Z,96892.22
2023-04-17T04:52:02.022Z,96880.91
2023-04-17T04:54:29.081Z,96901.63
2023-04-17T04:56:56.978Z,96901.06
2023-04-17T04:59:23.684Z,96900.53
2023-04-17T05:01:50.644Z,96902.94
2023-04-17T05:04:17.397Z,96902.13
2023-04-17T05:06:44.056Z,96909.94
2023-04-17T05:09:10.944Z,96893.50
2023-04-17T05:11:37.857Z,96891.06
2023-04-17T05:14:04.540Z,96893.75
2023-04-17T05:16:31.293Z,96903.72
2023-04-17T05:18:58.024Z,96892.69
2023-04-17T05:21:24.958Z,96900.72
2023-04-17T05:23:51.565Z,96905.56
2023-04-17T05:26:18.298Z,96911.50
2023-04-17T05:28:45.449Z,96908.00
2023-04-17T05:31:12.414Z,96913.91
2023-04-17T05:33:39.168Z,96912.53
2023-04-17T05:36:06.633Z,96912.78
2023-04-17T05:38:33.471Z,96913.56
2023-04-17T05:41:01.813Z,96914.63
2023-04-17T05:43:28.712Z,96912.75
2023-04-17T05:45:55.681Z,96917.31
2023-04-17T05:48:23.054Z,96911.91
2023-04-17T05:50:49.823Z,96917.50
2023-04-17T05:53:16.939Z,96923.66
2023-04-17T05:55:43.691Z,96922.03
2023-04-17T05:58:23.298Z,96928.19
2023-04-17T06:00:51.870Z,96916.31
2023-04-17T06:03:19.306Z,96928.91
2023-04-17T06:05:47.253Z,96918.09
2023-04-17T06:08:14.089Z,96919.63
2023-04-17T06:10:41.014Z,96921.44
2023-04-17T06:13:07.673Z,96918.16
2023-04-17T06:15:34.512Z,96920.47
2023-04-17T06:18:01.569Z,96915.50
2023-04-17T06:20:28.375Z,96916.97
2023-04-17T06:22:55.000Z,96909.06
2023-04-17T06:25:21.861Z,96918.09
2023-04-17T06:27:48.746Z,96917.69
2023-04-17T06:30:15.572Z,96922.69
2023-04-17T06:32:43.433Z,96921.78
2023-04-17T06:35:13.217Z,96921.94
2023-04-17T06:37:39.881Z,96917.47
2023-04-17T06:40:07.237Z,96914.88
2023-04-17T06:42:35.511Z,96915.19
2023-04-17T06:45:02.248Z,96920.38
2023-04-17T06:47:29.200Z,96913.34
2023-04-17T06:49:57.964Z,96915.50
2023-04-17T06:52:25.031Z,96921.66
2023-04-17T06:54:54.929Z,96922.44
2023-04-17T06:57:22.240Z,96916.28
2023-04-17T06:59:49.312Z,96926.97
2023-04-17T07:02:16.633Z,96926.44
2023-04-17T07:04:43.521Z,96935.06
2023-04-17T07:07:11.233Z,96924.13
2023-04-17T07:09:38.032Z,96931.19
2023-04-17T07:12:04.961Z,96925.31
2023-04-17T07:14:32.168Z,96914.56
2023-04-17T07:16:59.594Z,96927.38
2023-04-17T07:19:26.240Z,96921.41
2023-04-17T07:21:53.313Z,96925.78
2023-04-17T07:24:20.211Z,96938.22
2023-04-17T07:26:46.937Z,96933.91
2023-04-17T07:29:14.170Z,96936.22
2023-04-17T07:31:41.227Z,96928.38
2023-04-17T07:34:07.979Z,96937.38
2023-04-17T07:36:35.109Z,96928.22
2023-04-17T07:39:01.982Z,96938.31
2023-04-17T07:41:28.690Z,96933.50
2023-04-17T07:43:58.466Z,96933.84
2023-04-17T07:46:26.225Z,96928.03
2023-04-17T07:48:52.825Z,96920.84
2023-04-17T07:51:19.827Z,96913.72
2023-04-17T07:53:46.750Z,96914.47
2023-04-17T07:56:13.417Z,96915.88
2023-04-17T07:58:40.665Z,96914.22
2023-04-17T08:01:07.300Z,96907.03
2023-04-17T08:03:34.412Z,96907.94
2023-04-17T08:06:01.439Z,96913.31
2023-04-17T08:08:28.270Z,96919.94
2023-04-17T08:10:54.995Z,96920.28
2023-04-17T08:13:21.800Z,96922.22
2023-04-17T08:15:48.545Z,96921.28
2023-04-17T08:18:15.230Z,96926.72
2023-04-17T08:20:41.943Z,96919.75
2023-04-17T08:23:08.624Z,96932.38
2023-04-17T08:25:35.513Z,96919.88
2023-04-17T08:28:02.314Z,96922.94
2023-04-17T08:30:29.325Z,96916.06
2023-04-17T08:32:57.583Z,96936.84
2023-04-17T08:35:25.320Z,96937.88
2023-04-17T08:37:52.092Z,96940.28
2023-04-17T08:40:21.522Z,96937.78
2023-04-17T08:42:49.709Z,96945.84
2023-04-17T08:45:16.594Z,96948.13
2023-04-17T08:47:43.688Z,96949.47
2023-04-17T08:50:15.161Z,96941.47
2023-04-17T08:52:50.069Z,96957.00
2023-04-17T08:55:19.408Z,96951.81
2023-04-17T08:57:59.709Z,96955.94
2023-04-17T09:00:28.812Z,96941.72
2023-04-17T09:02:57.583Z,96944.56
2023-04-17T09:05:26.072Z,96942.69
2023-04-17T09:08:13.004Z,96942.91
2023-04-17T09:10:46.534Z,96947.56
2023-04-17T09:13:16.549Z,96949.53
2023-04-17T09:15:44.668Z,96954.81
2023-04-17T09:18:30.476Z,96943.38
2023-04-17T09:20:59.801Z,96942.25
2023-04-17T09:23:27.780Z,96945.78
2023-04-17T09:26:08.145Z,96938.84
2023-04-17T09:28:39.760Z,96941.47
2023-04-17T09:31:27.757Z,96943.16
2023-04-17T09:33:57.888Z,96940.19
2023-04-17T09:36:25.010Z,96941.81
2023-04-17T09:38:51.790Z,96935.59
2023-04-17T09:41:32.405Z,96913.94
2023-04-17T09:44:10.406Z,96924.44
2023-04-17T09:46:47.763Z,96925.38
2023-04-17T09:49:34.584Z,96933.13
2023-04-17T09:52:01.924Z,96929.47
2023-04-17T09:54:31.657Z,96920.78
2023-04-17T09:56:59.254Z,96922.69
2023-04-17T09:59:26.415Z,96921.53
2023-04-17T10:01:54.510Z,96921.16
2023-04-17T10:04:22.486Z,96923.88
2023-04-17T10:06:52.611Z,96917.19
2023-04-17T10:09:19.627Z,96916.34
2023-04-17T10:11:48.036Z,96920.19
2023-04-17T10:14:30.848Z,96932.72
2023-04-17T10:16:57.583Z,96918.34
2023-04-17T10:19:31.477Z,96912.69
2023-04-17T10:22:18.154Z,96918.88
2023-04-17T10:25:11.573Z,96912.41
2023-04-17T10:27:38.940Z,96925.06
2023-04-17T10:30:12.087Z,96920.50
2023-04-17T10:32:40.823Z,96910.03
2023-04-17T10:35:27.876Z,96897.16
2023-04-17T10:38:06.823Z,96897.97
2023-04-17T10:40:35.879Z,96897.31
2023-04-17T10:43:18.092Z,96891.44
2023-04-17T10:46:00.280Z,96903.84
2023-04-17T10:48:38.342Z,96902.75
2023-04-17T10:51:27.927Z,96893.41
2023-04-17T10:53:54.521Z,96889.78
2023-04-17T10:56:30.985Z,96874.13
2023-04-17T10:59:05.693Z,96880.91
2023-04-17T11:01:37.976Z,96881.53
2023-04-17T11:04:06.571Z,96897.47
2023-04-17T11:06:38.235Z,96893.81
2023-04-17T11:09:08.720Z,96895.84
2023-04-17T11:11:44.053Z,96881.59
2023-04-17T11:14:17.218Z,96887.47
2023-04-17T11:16:46.552Z,96897.72
2023-04-17T11:19:21.684Z,96884.97
2023-04-17T11:21:50.334Z,96871.09
2023-04-17T11:24:31.374Z,96878.41
2023-04-17T11:27:00.016Z,96873.84
2023-04-17T11:29:27.995Z,96867.50
2023-04-17T11:31:56.874Z,96870.81
2023-04-17T11:34:26.712Z,96880.19
2023-04-17T11:36:56.406Z,96861.13
2023-04-17T11:39:34.608Z,96865.50
2023-04-17T11:42:05.198Z,96864.81
2023-04-17T11:44:31.926Z,96862.91
2023-04-17T11:46:59.285Z,96857.50
2023-04-17T11:49:27.555Z,96871.22
2023-04-17T11:51:55.385Z,96856.84
2023-04-17T11:54:30.091Z,96852.16
2023-04-17T11:57:04.655Z,96854.44
2023-04-17T11:59:37.441Z,96847.84
2023-04-17T12:02:07.234Z,96846.59
2023-04-17T12:04:35.680Z,96838.56
2023-04-17T12:07:04.115Z,96839.88
2023-04-17T12:09:31.918Z,96834.16
2023-04-17T12:11:59.778Z,96824.22
2023-04-17T12:14:26.862Z,96834.72
2023-04-17T12:16:53.637Z,96822.81
2023-04-17T12:19:20.461Z,96820.06
2023-04-17T12:21:50.181Z,96821.84
2023-04-17T12:24:18.227Z,96816.50
2023-04-17T12:26:49.342Z,96805.75
2023-04-17T12:29:17.792Z,96806.00
2023-04-17T12:31:45.773Z,96814.88
2023-04-17T12:34:13.030Z,96797.25
2023-04-17T12:36:40.062Z,96803.38
2023-04-17T12:39:09.302Z,96789.88
2023-04-17T12:41:36.178Z,96792.44
2023-04-17T12:44:03.650Z,96793.69
2023-04-17T12:46:30.970Z,96797.81
2023-04-17T12:48:59.345Z,96794.56
2023-04-17T12:51:29.795Z,96801.44
2023-04-17T12:53:56.813Z,96787.53
2023-04-17T12:56:24.083Z,96787.84
2023-04-17T12:58:51.189Z,96785.50
2023-04-17T13:01:17.874Z,96780.25
2023-04-17T13:03:44.856Z,96789.72
2023-04-17T13:06:12.372Z,96779.38
2023-04-17T13:08:39.223Z,96773.91
2023-04-17T13:11:06.111Z,96772.09
2023-04-17T13:13:32.793Z,96780.59
2023-04-17T13:15:59.430Z,96788.41
2023-04-17T13:18:26.495Z,96782.94
2023-04-17T13:20:53.208Z,96795.59
2023-04-17T13:23:20.005Z,96803.50
2023-04-17T13:25:47.255Z,96798.66
2023-04-17T13:28:14.068Z,96803.41
2023-04-17T13:30:40.789Z,96794.84
2023-04-17T13:33:08.061Z,96807.41
2023-04-17T13:35:35.030Z,96803.84
2023-04-17T13:38:03.124Z,96803.50
2023-04-17T13:40:31.116Z,96801.44
2023-04-17T13:42:58.618Z,96805.53
2023-04-17T13:45:25.588Z,96810.25
2023-04-17T13:47:52.803Z,96801.94
2023-04-17T13:50:19.748Z,96803.19
2023-04-17T13:52:46.384Z,96803.03
2023-04-17T13:55:14.704Z,96800.25
2023-04-17T13:57:41.662Z,96795.16
2023-04-17T14:00:08.999Z,96797.78
2023-04-17T14:02:36.154Z,96807.88
2023-04-17T14:05:03.162Z,96800.38
2023-04-17T14:07:30.143Z,96795.94
2023-04-17T14:09:56.844Z,96807.09
2023-04-17T14:12:23.674Z,96790.53
2023-04-17T14:14:50.332Z,96800.84
2023-04-17T14:17:17.458Z,96815.13
2023-04-17T14:19:44.398Z,96809.03
2023-04-17T14:22:11.110Z,96807.09
2023-04-17T14:24:37.848Z,96811.94
2023-04-17T14:27:04.797Z,96823.28
2023-04-17T14:29:31.431Z,96813.38
2023-04-17T14:31:58.157Z,96810.09
2023-04-17T14:34:25.048Z,96825.81
2023-04-17T14:36:51.681Z,96820.25
2023-04-17T14:39:19.766Z,96814.31
2023-04-17T14:41:46.807Z,96813.16
2023-04-17T14:44:13.726Z,96820.25
2023-04-17T14:46:40.754Z,96819.81
2023-04-17T14:49:08.222Z,96825.88
2023-04-17T14:51:34.928Z,96825.75
2023-04-17T14:54:01.694Z,96824.44
2023-04-17T14:56:28.518Z,96825.56
2023-04-17T14:58:55.274Z,96824.56
2023-04-17T15:01:22.183Z,96814.22
2023-04-17T15:03:49.103Z,96824.44
2023-04-17T15:06:16.809Z,96814.38
2023-04-17T15:08:43.860Z,96830.75
2023-04-17T15:11:10.547Z,96824.78
2023-04-17T15:13:37.365Z,96823.84
2023-04-17T15:16:04.371Z,96823.69
2023-04-17T15:18:31.409Z,96841.06
2023-04-17T15:20:58.493Z,96841.28
2023-04-17T15:23:26.636Z,96838.63
2023-04-17T15:25:57.723Z,96849.69
2023-04-17T15:28:25.345Z,96847.94
2023-04-17T15:30:52.045Z,96843.63
2023-04-17T15:33:18.943Z,96852.63
2023-04-17T15:35:45.664Z,96851.69
2023-04-17T15:38:12.519Z,96848.03
2023-04-17T15:40:39.203Z,96850.63
2023-04-17T15:43:05.852Z,96858.88
2023-04-17T15:45:32.459Z,96853.00
2023-04-17T15:48:05.321Z,96849.34
2023-04-17T15:50:32.249Z,96855.88
2023-04-17T15:52:58.877Z,96857.47
2023-04-17T15:55:25.571Z,96870.84
2023-04-17T15:57:52.387Z,96862.84
2023-04-17T16:00:19.555Z,96853.16
2023-04-17T16:02:48.075Z,96875.78
2023-04-17T16:05:16.038Z,96881.59
2023-04-17T16:07:42.815Z,96869.78
2023-04-17T16:10:14.011Z,96872.19
2023-04-17T16:12:41.624Z,96881.53
2023-04-17T16:15:08.874Z,96868.84
2023-04-17T16:17:35.761Z,96880.91
2023-04-17T16:20:04.228Z,96882.81
2023-04-17T16:22:31.749Z,96883.00
2023-04-17T16:24:58.747Z,96878.81
2023-04-17T16:27:29.397Z,96889.91
2023-04-17T16:29:56.294Z,96895.84
2023-04-17T16:32:25.213Z,96894.72
2023-04-17T16:34:52.872Z,96898.06
2023-04-17T16:37:19.710Z,96905.28
2023-04-17T16:39:47.284Z,96902.22
2023-04-17T16:42:14.587Z,96908.00
2023-04-17T16:44:41.264Z,96911.66
2023-04-17T16:47:13.406Z,96913.13
2023-04-17T16:49:41.691Z,96913.44
2023-04-17T16:52:08.778Z,96908.78
2023-04-17T16:54:35.620Z,96912.94
2023-04-17T16:57:02.534Z,96915.47
2023-04-17T16:59:30.711Z,96928.31
2023-04-17T17:01:57.946Z,96926.25
2023-04-17T17:04:25.787Z,96920.13
2023-04-17T17:06:52.801Z,96923.19
2023-04-17T17:09:20.521Z,96931.19
2023-04-17T17:11:47.630Z,96929.84
2023-04-17T17:14:16.138Z,96938.81
2023-04-17T17:16:42.895Z,96942.06
2023-04-17T17:19:09.678Z,96938.31
2023-04-17T17:21:37.044Z,96939.63
2023-04-17T17:24:04.032Z,96943.28
2023-04-17T17:26:30.956Z,96937.66
2023-04-17T17:28:57.600Z,96948.06
2023-04-17T17:31:24.286Z,96946.63
2023-04-17T17:33:52.876Z,96953.47
2023-04-17T17:36:20.260Z,96944.34
2023-04-17T17:38:46.929Z,96944.97
2023-04-17T17:41:14.555Z,96955.38
2023-04-17T17:43:41.233Z,96955.66
2023-04-17T17:46:07.981Z,96957.75
2023-04-17T17:48:35.705Z,96974.69
2023-04-17T17:51:02.388Z,96968.09
2023-04-17T17:53:29.011Z,96974.94
2023-04-17T17:55:56.691Z,96973.34
2023-04-17T17:58:23.504Z,96982.41
2023-04-17T18:00:50.947Z,96978.25
2023-04-17T18:03:18.030Z,96980.97
2023-04-17T18:05:46.564Z,96990.53
2023-04-17T18:08:14.478Z,96987.97
2023-04-17T18:10:41.235Z,96980.59
2023-04-17T18:13:08.040Z,96986.47
2023-04-17T18:15:36.367Z,96989.19
2023-04-17T18:18:03.440Z,96970.22
2023-04-17T18:20:30.220Z,96993.78
2023-04-17T18:22:59.185Z,96995.19
2023-04-17T18:25:26.248Z,97001.25
2023-04-17T18:27:53.191Z,96999.13
2023-04-17T18:30:19.994Z,96994.63
2023-04-17T18:32:46.804Z,96999.56
2023-04-17T18:35:13.566Z,97001.09
2023-04-17T18:37:40.358Z,97000.28
2023-04-17T18:40:10.737Z,96988.06
2023-04-17T18:42:39.412Z,96990.09
2023-04-17T18:45:08.043Z,96985.47
2023-04-17T18:47:36.482Z,96992.31
2023-04-17T18:50:04.498Z,96998.03
2023-04-17T18:52:31.197Z,97003.47
2023-04-17T18:55:00.607Z,96980.53
2023-04-17T18:57:29.598Z,97002.38
2023-04-17T18:59:57.132Z,96999.94
2023-04-17T19:02:45.719Z,96998.53
2023-04-17T19:05:12.803Z,96999.06
2023-04-17T19:07:42.349Z,97000.13
2023-04-17T19:10:09.662Z,96999.94
2023-04-17T19:12:36.374Z,97000.75
2023-04-17T19:15:04.316Z,96991.28
2023-04-17T19:17:32.305Z,96997.50
2023-04-17T19:20:00.239Z,96986.59
2023-04-17T19:22:27.799Z,96989.50
2023-04-17T19:24:54.801Z,97000.66
2023-04-17T19:27:22.823Z,96988.09
2023-04-17T19:29:49.437Z,96985.19
2023-04-17T19:32:16.811Z,96984.00
2023-04-17T19:34:44.399Z,96987.13
2023-04-17T19:37:11.146Z,96993.16
2023-04-17T19:39:37.860Z,96988.81
2023-04-17T19:42:04.639Z,96973.84
2023-04-17T19:44:31.332Z,96984.63
2023-04-17T19:46:58.222Z,96996.59
2023-04-17T19:49:25.174Z,96991.25
2023-04-17T19:51:51.852Z,96998.91
2023-04-17T19:54:18.497Z,96996.00
2023-04-17T19:56:45.496Z,96997.41
2023-04-17T19:59:16.098Z,96994.16
2023-04-17T20:01:44.529Z,96997.41
2023-04-17T20:04:11.452Z,96995.47
2023-04-17T20:06:39.571Z,96993.56
2023-04-17T20:09:06.360Z,96987.13
2023-04-17T20:11:33.159Z,96992.78
2023-04-17T20:13:59.743Z,96995.81
2023-04-17T20:16:26.668Z,96995.81
2023-04-17T20:18:53.494Z,96998.50
2023-04-17T20:21:20.167Z,97007.47
2023-04-17T20:23:47.787Z,97009.66
2023-04-17T20:26:14.915Z,96996.69
2023-04-17T20:28:42.030Z,97009.66
2023-04-17T20:31:08.926Z,97009.47
2023-04-17T20:33:35.722Z,97008.44
2023-04-17T20:36:02.621Z,97002.03
2023-04-17T20:38:29.282Z,97008.25
2023-04-17T20:40:56.308Z,97006.44
2023-04-17T20:43:22.896Z,97003.22
2023-04-17T20:45:50.172Z,97008.66
2023-04-17T20:48:17.001Z,97002.53
2023-04-17T20:50:43.729Z,96998.41
2023-04-17T20:53:10.583Z,97013.25
2023-04-17T20:55:38.505Z,97016.59
2023-04-17T20:58:05.473Z,97022.63
2023-04-17T21:00:32.692Z,97019.09
2023-04-17T21:02:59.474Z,97014.88
2023-04-17T21:05:26.905Z,97006.84
2023-04-17T21:07:54.735Z,97010.63
2023-04-17T21:10:21.424Z,97009.03
2023-04-17T21:12:48.067Z,97009.34
2023-04-17T21:15:15.235Z,97002.28
2023-04-17T21:17:46.797Z,97005.91
2023-04-17T21:20:14.018Z,97011.31
2023-04-17T21:22:40.863Z,97010.63
2023-04-17T21:25:08.098Z,97016.34
2023-04-17T21:27:34.790Z,97016.72
2023-04-17T21:30:02.050Z,97017.34
2023-04-17T21:32:28.956Z,97022.81
2023-04-17T21:34:55.798Z,97021.00
2023-04-17T21:37:22.455Z,97025.63
2023-04-17T21:39:49.204Z,97016.75
2023-04-17T21:42:17.195Z,97006.28
2023-04-17T21:44:43.893Z,97017.03
2023-04-17T21:47:10.698Z,97016.03
2023-04-17T21:49:37.414Z,97007.69
2023-04-17T21:52:04.016Z,97017.78
2023-04-17T21:54:30.946Z,97013.47
2023-04-17T21:56:57.583Z,97010.34
2023-04-17T21:59:24.407Z,97020.66
2023-04-17T22:01:51.468Z,97011.06
2023-04-17T22:04:18.367Z,97019.94
2023-04-17T22:06:45.323Z,97021.91
2023-04-17T22:09:12.283Z,97010.84
2023-04-17T22:11:39.562Z,97023.91
2023-04-17T22:14:08.068Z,97011.88
2023-04-17T22:16:36.107Z,96997.84
2023-04-17T22:19:03.683Z,97026.25
2023-04-17T22:21:35.443Z,97018.28
2023-04-17T22:24:03.416Z,97019.34
2023-04-17T22:26:32.126Z,97030.72
2023-04-17T22:29:00.185Z,97012.19
2023-04-17T22:31:29.119Z,97024.25
2023-04-17T22:33:55.984Z,97027.56
2023-04-17T22:36:23.068Z,97014.38
2023-04-17T22:38:49.836Z,97031.72
2023-04-17T22:41:16.761Z,97016.94
2023-04-17T22:43:43.389Z,97032.81
2023-04-17T22:46:10.110Z,97025.28
2023-04-17T22:48:36.839Z,97027.22
2023-04-17T22:51:03.844Z,97031.78
2023-04-17T22:53:33.548Z,97031.28
2023-04-17T22:56:04.759Z,97032.41
2023-04-17T22:58:33.020Z,97036.47
2023-04-17T23:01:00.547Z,97027.97
2023-04-17T23:03:27.305Z,97038.94
2023-04-17T23:05:54.626Z,97040.03
2023-04-17T23:08:21.645Z,97044.94
2023-04-17T23:11:01.918Z,97032.28
2023-04-17T23:13:29.304Z,97031.78
2023-04-17T23:15:56.159Z,97045.50
2023-04-17T23:18:22.951Z,97044.19
2023-04-17T23:20:50.023Z,97037.56
2023-04-17T23:23:18.546Z,97042.72
2023-04-17T23:25:45.432Z,97050.06
2023-04-17T23:28:12.290Z,97046.09
2023-04-17T23:30:39.039Z,97055.88
2023-04-17T23:33:06.116Z,97043.00
2023-04-17T23:35:32.821Z,97051.38
2023-04-17T23:37:59.416Z,97045.50
2023-04-17T23:40:27.609Z,97051.50
2023-04-17T23:42:54.922Z,97046.13
2023-04-17T23:45:21.519Z,97050.22
2023-04-17T23:47:48.345Z,97053.00
2023-04-17T23:50:15.224Z,97045.22
2023-04-17T23:52:41.896Z,97056.59
2023-04-17T23:55:08.829Z,97044.25
2023-04-17T23:57:37.800Z,97048.63
